Time;durP1;ratioP1;P1;durP2;ratioP2;P2;SDS_P1;SDS_P2;PMS_P1;PMS_P2;Temp;Humidity;BMP_temperature;BMP_pressure;BME280_temperature;BME280_humidity;BME280_pressure;Samples;Min_cycle;Max_cycle;Signal;HPM_P1;HPM_P2
2024/03/10 00:00:14;;;;;;;13.77;13.37;;;;;;;;;;5018179;28;20462;-73
2024/03/10 00:02:41;;;;;;;13.50;13.10;;;;;;;;;;5013302;28;20470;-73
2024/03/10 00:05:08;;;;;;;13.77;13.37;;;;;;;;;;5017256;28;21008;-75
2024/03/10 00:07:35;;;;;;;14.00;13.60;;;;;;;;;;5021018;28;20464;-74
2024/03/10 00:10:03;;;;;;;14.07;13.67;;;;;;;;;;5013980;28;20459;-75
2024/03/10 00:12:31;;;;;;;13.63;13.23;;;;;;;;;;5024899;28;20462;-75
2024/03/10 00:14:59;;;;;;;13.47;13.07;;;;;;;;;;5025924;28;20548;-73
2024/03/10 00:17:26;;;;;;;13.43;13.03;;;;;;;;;;5022765;28;20484;-75
2024/03/10 00:19:54;;;;;;;13.77;13.37;;;;;;;;;;5024094;28;20464;-73
2024/03/10 00:22:21;;;;;;;13.80;13.40;;;;;;;;;;5017867;28;20460;-77
2024/03/10 00:24:49;;;;;;;14.00;13.60;;;;;;;;;;5021630;28;20473;-76
2024/03/10 00:27:16;;;;;;;13.97;13.57;;;;;;;;;;5030306;28;20853;-73
2024/03/10 00:29:44;;;;;;;14.07;13.67;;;;;;;;;;5030471;28;20839;-73
2024/03/10 00:32:13;;;;;;;13.83;13.43;;;;;;;;;;5027019;28;20465;-75
2024/03/10 00:34:42;;;;;;;13.60;13.20;;;;;;;;;;5026591;28;20473;-73
2024/03/10 00:37:11;;;;;;;14.00;13.60;;;;;;;;;;5025260;28;20467;-73
2024/03/10 00:39:38;;;;;;;14.00;13.60;;;;;;;;;;5027872;28;20948;-75
2024/03/10 00:42:07;;;;;;;13.60;13.20;;;;;;;;;;5017487;28;20552;-74
2024/03/10 00:44:34;;;;;;;13.27;12.87;;;;;;;;;;5026681;28;20924;-73
2024/03/10 00:47:01;;;;;;;13.80;13.40;;;;;;;;;;5030215;28;20572;-76
2024/03/10 00:49:30;;;;;;;13.87;13.47;;;;;;;;;;5020912;28;20469;-73
2024/03/10 00:51:57;;;;;;;13.43;13.03;;;;;;;;;;5020846;28;20472;-73
2024/03/10 00:54:25;;;;;;;13.73;13.33;;;;;;;;;;5027594;28;20998;-75
2024/03/10 00:56:52;;;;;;;13.97;13.57;;;;;;;;;;5028962;28;20489;-74
2024/03/10 00:59:19;;;;;;;14.13;13.73;;;;;;;;;;5029250;28;20461;-73
2024/03/10 01:01:46;;;;;;;14.80;14.30;;;;;;;;;;4992817;28;20496;-74
2024/03/10 01:04:13;;;;;;;14.57;14.07;;;;;;;;;;4993744;28;20464;-74
2024/03/10 01:06:42;;;;;;;14.47;13.97;;;;;;;;;;4994353;28;21176;-73
2024/03/10 01:09:09;;;;;;;14.10;13.70;;;;;;;;;;4992054;28;21032;-73
2024/03/10 01:11:37;;;;;;;14.00;13.60;;;;;;;;;;4992203;28;20458;-76
2024/03/10 01:14:05;;;;;;;13.73;13.33;;;;;;;;;;4992225;28;20474;-73
2024/03/10 01:16:32;;;;;;;13.57;13.17;;;;;;;;;;4994813;28;20602;-74
2024/03/10 01:19:00;;;;;;;13.73;13.33;;;;;;;;;;4993087;28;21585;-73
2024/03/10 01:21:27;;;;;;;13.50;13.10;;;;;;;;;;4994965;28;21134;-73
2024/03/10 01:23:56;;;;;;;13.10;12.70;;;;;;;;;;4993011;28;20466;-74
2024/03/10 01:26:24;;;;;;;13.27;12.87;;;;;;;;;;4992134;28;20493;-75
2024/03/10 01:28:51;;;;;;;12.97;12.57;;;;;;;;;;4991848;28;21138;-73
2024/03/10 01:31:18;;;;;;;13.67;13.27;;;;;;;;;;4992746;28;20557;-74
2024/03/10 01:33:47;;;;;;;13.27;12.87;;;;;;;;;;4994011;28;20452;-73
2024/03/10 01:36:15;;;;;;;13.60;13.20;;;;;;;;;;4995421;28;20837;-75
2024/03/10 01:38:42;;;;;;;13.80;13.40;;;;;;;;;;4994954;28;21096;-73
2024/03/10 01:41:11;;;;;;;13.10;12.70;;;;;;;;;;4993989;28;20551;-76
2024/03/10 01:43:40;;;;;;;13.80;13.40;;;;;;;;;;4993399;28;20903;-73
2024/03/10 01:46:09;;;;;;;13.30;12.90;;;;;;;;;;4993777;28;21029;-76
2024/03/10 01:48:38;;;;;;;13.20;12.80;;;;;;;;;;4991734;28;20470;-76
2024/03/10 01:51:06;;;;;;;14.00;13.60;;;;;;;;;;4994454;28;20472;-74
2024/03/10 01:53:34;;;;;;;13.50;13.10;;;;;;;;;;4993042;28;20465;-75
2024/03/10 01:56:01;;;;;;;13.50;13.10;;;;;;;;;;4992376;28;20526;-73
2024/03/10 01:58:31;;;;;;;13.23;12.83;;;;;;;;;;4995279;28;20465;-73
2024/03/10 02:01:01;;;;;;;13.83;13.43;;;;;;;;;;5012476;28;21066;-73
2024/03/10 02:03:29;;;;;;;13.70;13.30;;;;;;;;;;5029662;28;20447;-72
2024/03/10 02:05:57;;;;;;;13.43;13.03;;;;;;;;;;5029027;28;20501;-74
2024/03/10 02:08:25;;;;;;;13.40;13.00;;;;;;;;;;5020316;28;20480;-75
2024/03/10 02:10:53;;;;;;;13.20;12.80;;;;;;;;;;5018775;28;20628;-73
2024/03/10 02:13:21;;;;;;;13.57;13.17;;;;;;;;;;5023716;28;20508;-73
2024/03/10 02:16:01;;;;;;;13.27;12.87;;;;;;;;;;5028126;28;20460;-73
2024/03/10 02:18:28;;;;;;;13.43;13.03;;;;;;;;;;5024560;28;20822;-73
2024/03/10 02:20:56;;;;;;;13.97;13.57;;;;;;;;;;5029174;28;20547;-74
2024/03/10 02:23:25;;;;;;;14.00;13.60;;;;;;;;;;5022093;28;20462;-73
2024/03/10 02:25:58;;;;;;;13.33;12.93;;;;;;;;;;5026514;28;20546;-74
2024/03/10 02:28:34;;;;;;;13.23;12.83;;;;;;;;;;5023942;28;20469;-73
2024/03/10 02:47:12;;;;;;;13.43;13.03;;;;;;;;;;5024179;28;20856;-74
2024/03/10 02:47:38;;;;;;;13.90;13.50;;;;;;;;;;5019426;28;21062;-76
2024/03/10 02:50:05;;;;;;;14.43;13.93;;;;;;;;;;5028234;28;20527;-73
2024/03/10 02:52:34;;;;;;;14.40;13.90;;;;;;;;;;5025653;28;20519;-74
2024/03/10 02:55:01;;;;;;;13.73;13.33;;;;;;;;;;5026576;28;20496;-74
2024/03/10 02:57:30;;;;;;;13.33;12.93;;;;;;;;;;5025230;28;20541;-72
2024/03/10 02:59:57;;;;;;;13.90;13.50;;;;;;;;;;5019857;28;20558;-74
2024/03/10 03:02:25;;;;;;;14.10;13.70;;;;;;;;;;5025711;28;20522;-77
2024/03/10 03:04:52;;;;;;;13.83;13.43;;;;;;;;;;5022934;28;20465;-72
2024/03/10 03:07:19;;;;;;;13.67;13.27;;;;;;;;;;5026732;28;20579;-73
2024/03/10 03:09:47;;;;;;;13.43;13.03;;;;;;;;;;5020064;28;20476;-73
2024/03/10 03:12:15;;;;;;;13.23;12.83;;;;;;;;;;5025756;28;20461;-74
2024/03/10 03:14:43;;;;;;;13.10;12.70;;;;;;;;;;5022733;28;20492;-73
2024/03/10 03:17:12;;;;;;;13.60;13.20;;;;;;;;;;5028187;28;20472;-73
2024/03/10 03:19:40;;;;;;;13.53;13.13;;;;;;;;;;5022689;28;20878;-75
2024/03/10 03:22:07;;;;;;;13.73;13.33;;;;;;;;;;5025226;28;20485;-73
2024/03/10 03:24:36;;;;;;;14.00;13.60;;;;;;;;;;5028456;28;20469;-73
2024/03/10 03:27:04;;;;;;;13.60;13.20;;;;;;;;;;5023966;28;20477;-77
2024/03/10 03:29:31;;;;;;;13.70;13.30;;;;;;;;;;5024464;28;20495;-73
2024/03/10 03:32:01;;;;;;;13.60;13.20;;;;;;;;;;5026282;28;20457;-73
2024/03/10 03:34:28;;;;;;;13.97;13.57;;;;;;;;;;5026951;28;20453;-75
2024/03/10 03:36:56;;;;;;;13.40;13.00;;;;;;;;;;5018744;28;20852;-75
2024/03/10 03:39:23;;;;;;;12.80;12.43;;;;;;;;;;5028376;28;20461;-73
2024/03/10 03:41:51;;;;;;;13.60;13.20;;;;;;;;;;5020838;28;20878;-73
2024/03/10 03:44:19;;;;;;;13.53;13.13;;;;;;;;;;5027680;28;20467;-75
2024/03/10 03:46:46;;;;;;;13.57;13.17;;;;;;;;;;5026912;28;20494;-73
2024/03/10 03:49:16;;;;;;;13.50;13.10;;;;;;;;;;5018829;28;20465;-73
2024/03/10 03:51:44;;;;;;;13.73;13.33;;;;;;;;;;5028310;28;20781;-73
2024/03/10 03:54:11;;;;;;;13.80;13.40;;;;;;;;;;5031054;28;20956;-73
2024/03/10 03:56:39;;;;;;;13.90;13.50;;;;;;;;;;5031734;28;20477;-72
2024/03/10 03:59:06;;;;;;;13.63;13.23;;;;;;;;;;5023267;28;21008;-75
2024/03/10 04:01:34;;;;;;;13.57;13.17;;;;;;;;;;5025794;28;20495;-76
2024/03/10 04:04:02;;;;;;;13.40;13.00;;;;;;;;;;5023971;28;20505;-73
2024/03/10 04:06:30;;;;;;;13.53;13.13;;;;;;;;;;5031946;28;20461;-76
2024/03/10 04:08:58;;;;;;;13.90;13.50;;;;;;;;;;5027422;28;20512;-73
2024/03/10 04:11:25;;;;;;;13.50;13.10;;;;;;;;;;5028870;28;20463;-76
2024/03/10 04:13:52;;;;;;;13.40;13.00;;;;;;;;;;5022375;28;20467;-76
2024/03/10 04:16:19;;;;;;;13.27;12.87;;;;;;;;;;5029667;28;20470;-73
2024/03/10 04:18:47;;;;;;;13.60;13.20;;;;;;;;;;5025382;28;20581;-73
2024/03/10 04:21:14;;;;;;;13.13;12.73;;;;;;;;;;5026733;28;20461;-74
2024/03/10 04:23:43;;;;;;;13.33;12.93;;;;;;;;;;5030156;28;20461;-76
2024/03/10 04:26:10;;;;;;;13.30;12.90;;;;;;;;;;5030601;28;20445;-74
2024/03/10 04:28:38;;;;;;;12.67;12.37;;;;;;;;;;5027500;28;20937;-73
2024/03/10 04:31:05;;;;;;;13.10;12.70;;;;;;;;;;5025043;28;20469;-76
2024/03/10 04:33:33;;;;;;;13.20;12.80;;;;;;;;;;5025564;28;21219;-76
2024/03/10 04:36:00;;;;;;;13.40;13.00;;;;;;;;;;5031337;28;20523;-74
2024/03/10 04:38:28;;;;;;;13.43;13.03;;;;;;;;;;5023908;28;20469;-74
2024/03/10 04:40:57;;;;;;;13.40;13.00;;;;;;;;;;5023140;28;20912;-74
2024/03/10 04:43:24;;;;;;;12.90;12.53;;;;;;;;;;5019730;28;20884;-76
2024/03/10 04:45:53;;;;;;;13.03;12.63;;;;;;;;;;5029350;28;20469;-72
2024/03/10 04:48:20;;;;;;;12.90;12.57;;;;;;;;;;5030850;28;20623;-73
2024/03/10 04:50:48;;;;;;;12.60;12.30;;;;;;;;;;5025420;28;20500;-75
2024/03/10 04:53:15;;;;;;;13.13;12.73;;;;;;;;;;5029437;28;20457;-73
2024/03/10 04:55:43;;;;;;;13.07;12.67;;;;;;;;;;5030128;28;21022;-74
2024/03/10 04:58:12;;;;;;;12.37;12.07;;;;;;;;;;5018926;28;20787;-73
2024/03/10 05:00:39;;;;;;;13.30;12.90;;;;;;;;;;5020002;28;20491;-73
2024/03/10 05:03:06;;;;;;;12.80;12.50;;;;;;;;;;5018808;28;21084;-75
2024/03/10 05:05:33;;;;;;;12.80;12.50;;;;;;;;;;5027025;28;20458;-73
2024/03/10 05:08:01;;;;;;;12.27;11.97;;;;;;;;;;5027634;28;20497;-74
2024/03/10 05:10:28;;;;;;;12.63;12.33;;;;;;;;;;5022780;28;20474;-74
2024/03/10 05:12:55;;;;;;;13.10;12.70;;;;;;;;;;5019067;28;20468;-73
2024/03/10 05:15:23;;;;;;;12.80;12.50;;;;;;;;;;5013957;28;20571;-73
2024/03/10 05:17:52;;;;;;;13.40;13.00;;;;;;;;;;5028432;28;20461;-73
2024/03/10 05:20:21;;;;;;;13.30;12.90;;;;;;;;;;5029578;28;20507;-74
2024/03/10 05:22:49;;;;;;;12.70;12.40;;;;;;;;;;5018812;28;20552;-73
2024/03/10 05:25:16;;;;;;;12.47;12.17;;;;;;;;;;5024586;28;20572;-73
2024/03/10 05:27:45;;;;;;;12.37;12.07;;;;;;;;;;5029071;28;20543;-75
2024/03/10 05:30:13;;;;;;;12.57;12.27;;;;;;;;;;5018043;28;20462;-75
2024/03/10 05:32:41;;;;;;;12.70;12.40;;;;;;;;;;5025563;28;20462;-75
2024/03/10 05:35:09;;;;;;;11.97;11.67;;;;;;;;;;5024651;28;20464;-73
2024/03/10 05:37:37;;;;;;;12.57;12.27;;;;;;;;;;5023646;28;20480;-73
2024/03/10 05:40:05;;;;;;;12.70;12.40;;;;;;;;;;5016865;28;20468;-73
2024/03/10 05:42:32;;;;;;;12.90;12.50;;;;;;;;;;5021394;28;20458;-73
2024/03/10 05:45:02;;;;;;;12.80;12.50;;;;;;;;;;5025437;28;20461;-73
2024/03/10 05:47:29;;;;;;;12.70;12.40;;;;;;;;;;5021571;28;20558;-74
2024/03/10 05:49:58;;;;;;;13.00;12.63;;;;;;;;;;5018123;28;20866;-73
2024/03/10 05:52:26;;;;;;;12.70;12.40;;;;;;;;;;5028833;28;20461;-73
2024/03/10 05:54:53;;;;;;;12.60;12.30;;;;;;;;;;5019037;28;20860;-76
2024/03/10 05:57:20;;;;;;;12.00;11.70;;;;;;;;;;5020621;28;20489;-73
2024/03/10 05:59:48;;;;;;;12.47;12.17;;;;;;;;;;5025643;28;20564;-73
2024/03/10 06:02:16;;;;;;;12.13;11.83;;;;;;;;;;5017392;28;21044;-75
2024/03/10 06:04:43;;;;;;;13.10;12.70;;;;;;;;;;5025123;28;20465;-73
2024/03/10 06:07:13;;;;;;;12.20;11.90;;;;;;;;;;5026185;28;20501;-75
2024/03/10 06:09:40;;;;;;;12.37;12.07;;;;;;;;;;5021695;28;20473;-73
2024/03/10 06:12:07;;;;;;;12.70;12.40;;;;;;;;;;5020786;28;20516;-73
2024/03/10 06:14:35;;;;;;;12.20;11.90;;;;;;;;;;5018144;28;20473;-73
2024/03/10 06:17:04;;;;;;;12.57;12.27;;;;;;;;;;5026818;28;20520;-73
2024/03/10 06:27:47;;;;;;;12.77;12.47;;;;;;;;;;5026181;28;20487;-72
2024/03/10 06:30:14;;;;;;;11.87;11.57;;;;;;;;;;5018465;28;20471;-73
2024/03/10 06:32:42;;;;;;;11.90;11.60;;;;;;;;;;5027019;28;20628;-73
2024/03/10 06:35:09;;;;;;;12.13;11.83;;;;;;;;;;5022416;28;20470;-75
2024/03/10 06:37:38;;;;;;;12.07;11.77;;;;;;;;;;5024510;28;20477;-74
2024/03/10 06:40:05;;;;;;;12.37;12.07;;;;;;;;;;5021431;28;20461;-74
2024/03/10 06:42:32;;;;;;;12.23;11.93;;;;;;;;;;5022456;28;20553;-73
2024/03/10 06:45:00;;;;;;;12.20;11.90;;;;;;;;;;5016343;28;20473;-73
2024/03/10 06:47:27;;;;;;;11.93;11.63;;;;;;;;;;5027724;28;20460;-73
2024/03/10 06:49:54;;;;;;;11.97;11.67;;;;;;;;;;5017278;28;20469;-76
2024/03/10 06:52:21;;;;;;;11.87;11.57;;;;;;;;;;5019421;28;20484;-73
2024/03/10 06:54:50;;;;;;;11.73;11.43;;;;;;;;;;5027642;28;20556;-74
2024/03/10 06:57:17;;;;;;;12.17;11.87;;;;;;;;;;5025556;28;20999;-74
2024/03/10 06:59:44;;;;;;;12.63;12.30;;;;;;;;;;5027531;28;20552;-73
2024/03/10 07:02:12;;;;;;;12.97;12.57;;;;;;;;;;5021240;28;21067;-73
2024/03/10 07:04:40;;;;;;;12.47;12.17;;;;;;;;;;5022288;28;20465;-75
2024/03/10 07:07:08;;;;;;;12.40;12.10;;;;;;;;;;5020463;28;20466;-74
2024/03/10 07:09:36;;;;;;;12.53;12.23;;;;;;;;;;5018151;28;20532;-73
2024/03/10 07:12:06;;;;;;;12.63;12.30;;;;;;;;;;5022645;28;20854;-74
2024/03/10 07:14:33;;;;;;;13.40;13.00;;;;;;;;;;5017397;28;20965;-74
2024/03/10 07:17:01;;;;;;;13.50;13.10;;;;;;;;;;5020648;28;20817;-75
2024/03/10 07:19:28;;;;;;;13.30;12.90;;;;;;;;;;5015457;28;20698;-76
2024/03/10 07:21:55;;;;;;;12.57;12.23;;;;;;;;;;5026917;28;20461;-73
2024/03/10 07:24:23;;;;;;;13.13;12.73;;;;;;;;;;5020694;28;20487;-76
2024/03/10 07:26:50;;;;;;;13.10;12.70;;;;;;;;;;5022571;28;20463;-72
2024/03/10 07:29:18;;;;;;;13.23;12.83;;;;;;;;;;5030778;28;20480;-74
2024/03/10 07:31:46;;;;;;;12.47;12.17;;;;;;;;;;5029132;28;20694;-75
2024/03/10 07:34:14;;;;;;;12.37;12.07;;;;;;;;;;5025839;28;20469;-75
2024/03/10 07:36:41;;;;;;;12.70;12.37;;;;;;;;;;5024517;28;20469;-73
2024/03/10 07:39:10;;;;;;;12.50;12.20;;;;;;;;;;5026957;28;20473;-73
2024/03/10 07:41:37;;;;;;;12.33;12.03;;;;;;;;;;5029942;28;20469;-73
2024/03/10 07:44:05;;;;;;;12.87;12.50;;;;;;;;;;5027538;28;20473;-73
2024/03/10 07:46:33;;;;;;;12.40;12.10;;;;;;;;;;5023792;28;20461;-77
2024/03/10 07:49:02;;;;;;;12.27;11.97;;;;;;;;;;5022474;28;20497;-74
2024/03/10 07:51:30;;;;;;;12.67;12.33;;;;;;;;;;5015377;28;20558;-76
2024/03/10 07:54:00;;;;;;;12.40;12.10;;;;;;;;;;5027234;28;20461;-73
2024/03/10 07:56:27;;;;;;;12.60;12.30;;;;;;;;;;5025148;28;20983;-73
2024/03/10 07:58:56;;;;;;;12.60;12.30;;;;;;;;;;5024494;28;20473;-76
2024/03/10 08:01:23;;;;;;;12.20;11.90;;;;;;;;;;5024434;28;20489;-74
2024/03/10 08:03:54;;;;;;;12.13;11.83;;;;;;;;;;5022325;28;20551;-74
2024/03/10 08:06:21;;;;;;;12.37;12.07;;;;;;;;;;5021213;28;20975;-73
2024/03/10 08:08:49;;;;;;;12.50;12.20;;;;;;;;;;5022628;28;20999;-73
2024/03/10 08:11:17;;;;;;;12.40;12.10;;;;;;;;;;5028565;28;20457;-76
2024/03/10 08:13:45;;;;;;;12.87;12.47;;;;;;;;;;5026933;28;20563;-76
2024/03/10 08:16:13;;;;;;;12.70;12.33;;;;;;;;;;5027241;28;20483;-75
2024/03/10 08:18:40;;;;;;;13.20;12.80;;;;;;;;;;5022294;28;20477;-74
2024/03/10 08:21:10;;;;;;;12.57;12.27;;;;;;;;;;5026616;28;20483;-75
2024/03/10 08:23:37;;;;;;;12.73;12.37;;;;;;;;;;5026506;28;21119;-73
2024/03/10 08:26:05;;;;;;;12.93;12.53;;;;;;;;;;5022608;28;20468;-74
2024/03/10 08:28:32;;;;;;;12.10;11.80;;;;;;;;;;5022864;28;20470;-77
2024/03/10 08:30:59;;;;;;;12.80;12.40;;;;;;;;;;5022865;28;20476;-75
2024/03/10 08:33:26;;;;;;;12.30;12.00;;;;;;;;;;5027210;28;20466;-76
2024/03/10 08:35:54;;;;;;;12.20;11.90;;;;;;;;;;5021663;28;20466;-76
2024/03/10 08:38:26;;;;;;;11.97;11.67;;;;;;;;;;5028486;28;21128;-76
2024/03/10 08:40:54;;;;;;;12.53;12.23;;;;;;;;;;5024660;28;20455;-74
2024/03/10 08:43:23;;;;;;;12.87;12.47;;;;;;;;;;5027429;28;20480;-77
2024/03/10 08:45:50;;;;;;;12.30;12.00;;;;;;;;;;5024700;28;22274;-75
2024/03/10 08:48:18;;;;;;;12.40;12.10;;;;;;;;;;5023017;28;20565;-74
2024/03/10 08:50:45;;;;;;;12.20;11.90;;;;;;;;;;5027990;28;20947;-76
2024/03/10 08:53:13;;;;;;;13.57;13.17;;;;;;;;;;5021273;28;20477;-73
2024/03/10 08:55:41;;;;;;;13.20;12.80;;;;;;;;;;5017184;28;20466;-74
2024/03/10 08:58:09;;;;;;;13.40;13.00;;;;;;;;;;5029167;28;20497;-73
2024/03/10 09:00:36;;;;;;;13.33;12.93;;;;;;;;;;5025618;28;20494;-73
2024/03/10 09:03:04;;;;;;;13.07;12.67;;;;;;;;;;5022690;28;20554;-75
2024/03/10 09:05:31;;;;;;;12.87;12.47;;;;;;;;;;5029932;28;20939;-74
2024/03/10 09:07:58;;;;;;;13.60;13.20;;;;;;;;;;5026743;28;20862;-74
2024/03/10 09:10:27;;;;;;;12.93;12.53;;;;;;;;;;5024130;28;20510;-76
2024/03/10 09:12:55;;;;;;;12.93;12.53;;;;;;;;;;5019500;28;20468;-75
2024/03/10 09:15:23;;;;;;;13.33;12.93;;;;;;;;;;5026266;28;20463;-76
2024/03/10 09:17:52;;;;;;;13.87;13.47;;;;;;;;;;5024843;28;20506;-74
2024/03/10 09:20:20;;;;;;;13.90;13.50;;;;;;;;;;5027672;28;20493;-74
2024/03/10 09:22:48;;;;;;;13.47;13.07;;;;;;;;;;5022604;28;20780;-74
2024/03/10 09:25:21;;;;;;;13.60;13.20;;;;;;;;;;5022073;28;20467;-74
2024/03/10 09:27:48;;;;;;;12.67;12.33;;;;;;;;;;5016103;28;20981;-74
2024/03/10 09:30:18;;;;;;;13.60;13.20;;;;;;;;;;5015559;28;20504;-74
2024/03/10 09:32:49;;;;;;;13.73;13.33;;;;;;;;;;5023597;28;20468;-73
2024/03/10 09:35:21;;;;;;;14.23;13.83;;;;;;;;;;5020162;28;20459;-73
2024/03/10 09:37:48;;;;;;;14.43;14.00;;;;;;;;;;5027986;28;20981;-75
2024/03/10 09:40:17;;;;;;;14.37;13.97;;;;;;;;;;5029229;28;20519;-74
2024/03/10 09:42:47;;;;;;;14.23;13.83;;;;;;;;;;5015633;28;20489;-78
2024/03/10 09:45:16;;;;;;;13.97;13.57;;;;;;;;;;5022956;28;20468;-74
2024/03/10 09:47:45;;;;;;;13.53;13.13;;;;;;;;;;5022117;28;20532;-75
2024/03/10 09:50:15;;;;;;;13.67;13.27;;;;;;;;;;5028687;28;20461;-74
2024/03/10 09:52:48;;;;;;;14.10;13.70;;;;;;;;;;5020888;28;20807;-74
2024/03/10 09:55:15;;;;;;;14.00;13.60;;;;;;;;;;5027294;28;20538;-74
2024/03/10 09:57:43;;;;;;;13.30;12.90;;;;;;;;;;5024403;28;20846;-74
2024/03/10 10:00:13;;;;;;;13.97;13.57;;;;;;;;;;5028690;28;20504;-74
2024/03/10 10:02:44;;;;;;;14.80;14.30;;;;;;;;;;5023641;28;20499;-74
2024/03/10 10:05:16;;;;;;;14.60;14.10;;;;;;;;;;5027045;28;20487;-74
2024/03/10 10:07:44;;;;;;;14.20;13.80;;;;;;;;;;5019517;28;20471;-74
2024/03/10 10:10:12;;;;;;;14.50;14.00;;;;;;;;;;5016977;28;21343;-74
2024/03/10 10:12:41;;;;;;;14.70;14.20;;;;;;;;;;5023346;28;20455;-74
2024/03/10 10:15:08;;;;;;;14.57;14.07;;;;;;;;;;5022751;28;20468;-72
2024/03/10 10:17:35;;;;;;;14.00;13.60;;;;;;;;;;5028354;28;20794;-74
2024/03/10 10:20:07;;;;;;;14.53;14.03;;;;;;;;;;5022067;28;20494;-78
2024/03/10 10:22:36;;;;;;;14.70;14.20;;;;;;;;;;5021140;28;20890;-75
2024/03/10 10:25:04;;;;;;;14.70;14.20;;;;;;;;;;5024391;28;20461;-74
2024/03/10 10:27:32;;;;;;;14.40;13.90;;;;;;;;;;5027734;28;20455;-76
2024/03/10 10:29:59;;;;;;;14.53;14.03;;;;;;;;;;5028329;28;20474;-74
2024/03/10 10:32:26;;;;;;;14.10;13.63;;;;;;;;;;5018514;28;20466;-76
2024/03/10 10:34:53;;;;;;;13.70;13.30;;;;;;;;;;5021466;28;20583;-77
2024/03/10 10:37:22;;;;;;;14.30;13.90;;;;;;;;;;5025856;28;20965;-75
2024/03/10 10:39:49;;;;;;;14.40;13.90;;;;;;;;;;5027460;28;21021;-78
2024/03/10 10:42:16;;;;;;;14.40;13.90;;;;;;;;;;5027764;28;20476;-74
2024/03/10 10:44:44;;;;;;;14.73;14.23;;;;;;;;;;5021078;28;20473;-75
2024/03/10 10:47:14;;;;;;;15.23;14.73;;;;;;;;;;5025097;28;20468;-75
2024/03/10 10:49:41;;;;;;;14.77;14.27;;;;;;;;;;5019381;28;20584;-75
2024/03/10 10:52:11;;;;;;;14.43;13.93;;;;;;;;;;5026269;28;20763;-76
2024/03/10 10:54:40;;;;;;;15.00;14.50;;;;;;;;;;5024041;28;20474;-75
2024/03/10 10:57:09;;;;;;;15.27;14.77;;;;;;;;;;5021433;28;20489;-76
2024/03/10 10:59:36;;;;;;;14.43;13.93;;;;;;;;;;5026077;28;21012;-75
2024/03/10 11:02:19;;;;;;;14.57;14.07;;;;;;;;;;5023732;28;20495;-74
2024/03/10 11:04:46;;;;;;;15.17;14.67;;;;;;;;;;5027508;28;20986;-74
2024/03/10 11:07:14;;;;;;;15.03;14.53;;;;;;;;;;5017369;28;20465;-74
2024/03/10 11:09:43;;;;;;;14.00;13.60;;;;;;;;;;5019646;28;20515;-76
2024/03/10 11:12:21;;;;;;;14.50;14.00;;;;;;;;;;5019791;28;20541;-74
2024/03/10 11:14:49;;;;;;;14.80;14.30;;;;;;;;;;5026840;28;20849;-76
2024/03/10 11:17:17;;;;;;;14.80;14.30;;;;;;;;;;5020090;28;20473;-76
2024/03/10 11:19:48;;;;;;;14.53;14.03;;;;;;;;;;5023927;28;20676;-74
2024/03/10 11:22:15;;;;;;;14.33;13.83;;;;;;;;;;5025239;28;20457;-74
2024/03/10 11:24:47;;;;;;;14.43;13.93;;;;;;;;;;5027392;28;20460;-74
2024/03/10 11:27:18;;;;;;;14.60;14.10;;;;;;;;;;5023448;28;21116;-77
2024/03/10 11:29:45;;;;;;;14.37;13.87;;;;;;;;;;5021378;28;20470;-74
2024/03/10 11:32:31;;;;;;;14.20;13.70;;;;;;;;;;5021271;28;20468;-76
2024/03/10 11:34:58;;;;;;;14.60;14.10;;;;;;;;;;5026633;28;20469;-71
2024/03/10 11:37:26;;;;;;;14.10;13.70;;;;;;;;;;5022652;28;20465;-72
2024/03/10 11:39:54;;;;;;;14.47;13.97;;;;;;;;;;5025879;28;20920;-72
2024/03/10 11:42:22;;;;;;;14.20;13.80;;;;;;;;;;5021549;28;20549;-72
2024/03/10 11:44:49;;;;;;;14.80;14.30;;;;;;;;;;5026109;28;20455;-71
2024/03/10 11:47:21;;;;;;;15.10;14.60;;;;;;;;;;5015041;28;20468;-71
2024/03/10 11:49:51;;;;;;;15.27;14.77;;;;;;;;;;5020006;28;20492;-72
2024/03/10 11:52:20;;;;;;;15.63;15.13;;;;;;;;;;5025342;28;20467;-72
2024/03/10 11:54:56;;;;;;;15.27;14.77;;;;;;;;;;5026810;28;20930;-71
2024/03/10 11:57:24;;;;;;;15.30;14.80;;;;;;;;;;5021621;28;20496;-71
2024/03/10 11:59:52;;;;;;;15.73;15.17;;;;;;;;;;5019034;28;20471;-71
2024/03/10 12:02:21;;;;;;;15.30;14.80;;;;;;;;;;5016000;28;20603;-72
2024/03/10 12:04:49;;;;;;;14.80;14.30;;;;;;;;;;5024828;28;20501;-75
2024/03/10 12:07:17;;;;;;;15.10;14.60;;;;;;;;;;5025274;28;21390;-71
2024/03/10 12:09:44;;;;;;;15.10;14.60;;;;;;;;;;5026763;28;20933;-72
2024/03/10 12:12:14;;;;;;;15.03;14.53;;;;;;;;;;5023404;28;20469;-72
2024/03/10 12:14:43;;;;;;;15.00;14.50;;;;;;;;;;5021784;28;20567;-72
2024/03/10 12:17:13;;;;;;;14.73;14.23;;;;;;;;;;5024591;28;20473;-74
2024/03/10 12:19:41;;;;;;;14.90;14.40;;;;;;;;;;5016119;28;20491;-72
2024/03/10 12:22:10;;;;;;;15.47;14.97;;;;;;;;;;5023429;28;20476;-74
2024/03/10 12:24:39;;;;;;;15.60;15.10;;;;;;;;;;5027307;28;20478;-72
2024/03/10 12:27:07;;;;;;;15.50;15.00;;;;;;;;;;5024251;28;20480;-72
2024/03/10 12:29:44;;;;;;;14.90;14.40;;;;;;;;;;5021758;28;20534;-74
2024/03/10 12:32:11;;;;;;;15.13;14.63;;;;;;;;;;5019664;28;20861;-72
2024/03/10 12:34:38;;;;;;;14.97;14.47;;;;;;;;;;5029936;28;20466;-74
2024/03/10 12:37:06;;;;;;;14.90;14.40;;;;;;;;;;5025340;28;20463;-73
2024/03/10 12:39:33;;;;;;;15.40;14.90;;;;;;;;;;5026630;28;20712;-72
2024/03/10 12:42:00;;;;;;;15.33;14.80;;;;;;;;;;5025383;28;20465;-74
2024/03/10 12:44:28;;;;;;;15.30;14.80;;;;;;;;;;5029740;28;20475;-72
2024/03/10 12:46:56;;;;;;;15.40;14.90;;;;;;;;;;5021507;28;20557;-73
2024/03/10 12:49:23;;;;;;;15.30;14.80;;;;;;;;;;5022159;28;20828;-72
2024/03/10 12:51:51;;;;;;;15.30;14.80;;;;;;;;;;5027140;28;20502;-72
2024/03/10 12:54:19;;;;;;;15.30;14.80;;;;;;;;;;5024585;28;21064;-72
2024/03/10 12:56:46;;;;;;;14.80;14.30;;;;;;;;;;5024997;28;20522;-72
2024/03/10 12:59:13;;;;;;;15.27;14.77;;;;;;;;;;5024641;28;20955;-72
2024/03/10 13:01:41;;;;;;;15.10;14.60;;;;;;;;;;5023620;28;21038;-72
2024/03/10 13:04:10;;;;;;;14.70;14.20;;;;;;;;;;5024393;28;20474;-72
2024/03/10 13:06:38;;;;;;;14.80;14.30;;;;;;;;;;5021913;28;20965;-72
2024/03/10 13:09:09;;;;;;;15.10;14.60;;;;;;;;;;5024131;28;20473;-72
2024/03/10 13:11:36;;;;;;;14.50;14.00;;;;;;;;;;5026979;28;20488;-72
2024/03/10 13:14:04;;;;;;;14.90;14.40;;;;;;;;;;5019729;28;20467;-74
2024/03/10 13:16:32;;;;;;;15.20;14.70;;;;;;;;;;5027654;28;20457;-74
2024/03/10 13:19:00;;;;;;;15.10;14.60;;;;;;;;;;5013386;28;20721;-72
2024/03/10 13:21:30;;;;;;;15.10;14.60;;;;;;;;;;5021325;28;20465;-72
2024/03/10 13:23:57;;;;;;;14.90;14.40;;;;;;;;;;5028706;28;20947;-71
2024/03/10 13:26:25;;;;;;;14.90;14.40;;;;;;;;;;5019958;28;20469;-77
2024/03/10 13:28:53;;;;;;;14.40;13.90;;;;;;;;;;5028085;28;21258;-72
2024/03/10 13:31:21;;;;;;;14.57;14.07;;;;;;;;;;5025193;28;20591;-73
2024/03/10 13:33:49;;;;;;;14.70;14.20;;;;;;;;;;5026631;28;20866;-72
2024/03/10 13:36:16;;;;;;;14.43;13.93;;;;;;;;;;5018747;28;20464;-72
2024/03/10 13:38:47;;;;;;;14.87;14.37;;;;;;;;;;5027658;28;20467;-73
2024/03/10 13:41:14;;;;;;;15.40;14.90;;;;;;;;;;5019223;28;20472;-73
2024/03/10 13:43:42;;;;;;;15.93;15.37;;;;;;;;;;5023669;28;20523;-71
2024/03/10 13:46:12;;;;;;;14.70;14.20;;;;;;;;;;5025232;28;20468;-72
2024/03/10 13:48:39;;;;;;;15.03;14.53;;;;;;;;;;5025162;28;20554;-74
2024/03/10 13:51:07;;;;;;;15.30;14.80;;;;;;;;;;5028043;28;20496;-77
2024/03/10 13:53:35;;;;;;;15.20;14.70;;;;;;;;;;5028122;28;20458;-74
2024/03/10 13:56:04;;;;;;;15.00;14.50;;;;;;;;;;5021637;28;20473;-72
2024/03/10 13:58:31;;;;;;;15.00;14.50;;;;;;;;;;5025836;28;21016;-73
2024/03/10 14:00:59;;;;;;;15.03;14.53;;;;;;;;;;5023268;28;20496;-72
2024/03/10 14:03:26;;;;;;;15.20;14.70;;;;;;;;;;5032579;28;20855;-72
2024/03/10 14:05:53;;;;;;;14.90;14.40;;;;;;;;;;5023436;28;20470;-73
2024/03/10 14:08:21;;;;;;;15.37;14.87;;;;;;;;;;5026806;28;20553;-72
2024/03/10 14:10:48;;;;;;;15.10;14.60;;;;;;;;;;5024833;28;20507;-78
2024/03/10 14:13:17;;;;;;;15.70;15.13;;;;;;;;;;5019796;28;20482;-74
2024/03/10 14:15:44;;;;;;;15.93;15.33;;;;;;;;;;5027547;28;20478;-75
2024/03/10 14:18:13;;;;;;;15.33;14.83;;;;;;;;;;5027590;28;20495;-72
2024/03/10 14:20:40;;;;;;;15.30;14.80;;;;;;;;;;5027545;28;20860;-76
2024/03/10 14:23:07;;;;;;;15.30;14.80;;;;;;;;;;5024189;28;20504;-72
2024/03/10 14:25:34;;;;;;;15.50;14.90;;;;;;;;;;5024582;28;20471;-72
2024/03/10 14:28:02;;;;;;;15.50;15.00;;;;;;;;;;5020910;28;20499;-73
2024/03/10 14:30:31;;;;;;;15.73;15.13;;;;;;;;;;5019863;28;20522;-72
2024/03/10 14:33:00;;;;;;;15.07;14.57;;;;;;;;;;5025181;28;20464;-73
2024/03/10 14:35:28;;;;;;;15.40;14.90;;;;;;;;;;5025056;28;20473;-72
2024/03/10 14:37:56;;;;;;;14.90;14.40;;;;;;;;;;5026878;28;20456;-73
2024/03/10 14:40:23;;;;;;;14.67;14.17;;;;;;;;;;5019944;28;20470;-73
2024/03/10 14:42:51;;;;;;;15.00;14.50;;;;;;;;;;5020410;28;20467;-75